Strona główna
METAR-TAF:

METAR-TAF

Lotnisko :

Port lotniczy Ryga

Ryga, Łotwa

Szerokość geograficzna: 56-55N, Długość geograficzna: 023-58E, wysokość: 10 m

Aktualna obserwacja pogody

Raport powstał 44 minut temu, godzina 22:50 UTC
Cisza
Temperatura 8°C
Wilgotność 93%
Ciśnienie 1019 hPa
Widzialność 10 km lub więcej
Mało chmury na wysokości 300 ft

METAR: EVRA 172250Z 00000KT 9999 FEW003 08/07 Q1019 NOSIG

czas: 02:34 (23:34 UTC)

Prognoza

Raport powstał 1 godzina i 15 minut temu, godzina 22:19 UTC
Prognoza ważna od 17 godzina 22 UTC do 18 godzina 21 UTC
Wiatr 2 kt z kierunków zmiennych
Widzialność 10 km lub więcej
Brak chmur poniżej 1500 m i brak chmur cumulonimbus
Przejściowo
od 17 godzina 22 UTC do 18 godzina 03 UTC
Widzialność: 2000 m
zamglenie, Płytka mgła
Przejściowo
od 18 godzina 03 UTC do 18 godzina 07 UTC
Rozproszone chmury na wysokości 3000 ft, Cumulonimbus.

TAF: EVRA 172219Z 1722/1821 VRB02KT CAVOK TEMPO 1722/1803 2000 BR MIFG TEMPO 1803/1807 SCT030CB

Obserwacja i prognoza pogody dla ponad 4000 lotnisk (raport METAR i TAF).

Dostępne stacje oznaczono żółtymi i czerwonymi punktami na mapie.

Najedź kursorem aby zobaczyć nazwę stacji.

Kliknij aby zobaczyć obserwacje i prognozy pogody.

Aby zmienić mapę: kliknij na zielony przycisk z czarnym krzyżykiem, aby powiększyć; na zielony przycisk z myślnikiem, aby pomniejszyć; na zielone strzałki, aby przejść do map sąsiednich.


METAR-TAF: